createdAt,value
2023-02-06T00:00:10.948Z,3.50
2023-02-06T00:03:32.921Z,3.50
2023-02-06T00:06:54.858Z,3.50
2023-02-06T00:10:16.892Z,3.50
2023-02-06T00:13:39.007Z,3.50
2023-02-06T00:17:01.214Z,3.50
2023-02-06T00:20:23.180Z,3.50
2023-02-06T00:23:45.136Z,3.40
2023-02-06T00:27:08.059Z,3.40
2023-02-06T00:30:30.015Z,3.50
2023-02-06T00:33:52.065Z,3.50
2023-02-06T00:37:14.832Z,3.60
2023-02-06T00:40:36.972Z,3.60
2023-02-06T00:43:58.957Z,3.70
2023-02-06T00:47:20.905Z,3.70
2023-02-06T00:50:43.538Z,3.70
2023-02-06T00:54:06.483Z,3.70
2023-02-06T00:57:28.512Z,3.70
2023-02-06T01:00:51.831Z,3.70
2023-02-06T01:04:13.844Z,3.70
2023-02-06T01:07:39.955Z,3.70
2023-02-06T01:11:01.880Z,3.70
2023-02-06T01:14:23.841Z,3.70
2023-02-06T01:17:45.792Z,3.70
2023-02-06T01:21:12.058Z,3.60
2023-02-06T01:24:34.059Z,3.60
2023-02-06T01:27:56.062Z,3.50
2023-02-06T01:31:27.666Z,3.50
2023-02-06T01:34:49.780Z,3.40
2023-02-06T01:38:11.737Z,3.40
2023-02-06T01:41:34.358Z,3.30
2023-02-06T01:45:24.218Z,3.30
2023-02-06T01:48:51.309Z,3.20
2023-02-06T01:52:31.870Z,3.20
2023-02-06T01:55:54.407Z,3.20
2023-02-06T01:59:16.828Z,3.20
2023-02-06T02:02:45.108Z,3.20
2023-02-06T02:06:11.574Z,3.10
2023-02-06T02:09:34.985Z,3.10
2023-02-06T02:12:57.268Z,3.10
2023-02-06T02:16:36.308Z,3.10
2023-02-06T02:20:06.230Z,3.10
2023-02-06T02:23:34.262Z,3.10
2023-02-06T02:27:14.149Z,3.00
2023-02-06T02:30:57.891Z,3.00
2023-02-06T02:34:37.794Z,3.00
2023-02-06T02:38:11.430Z,3.00
2023-02-06T02:41:48.849Z,3.00
2023-02-06T02:45:19.076Z,3.00
2023-02-06T02:48:47.782Z,3.00
2023-02-06T02:52:11.300Z,3.00
2023-02-06T02:55:33.697Z,3.00
2023-02-06T02:59:03.096Z,3.00
2023-02-06T03:02:38.779Z,2.90
2023-02-06T03:06:19.435Z,3.00
2023-02-06T03:10:00.745Z,2.90
2023-02-06T03:13:43.333Z,2.90
2023-02-06T03:17:09.832Z,2.90
2023-02-06T03:20:33.169Z,3.00
2023-02-06T03:23:59.900Z,2.90
2023-02-06T03:27:24.442Z,2.90
2023-02-06T03:30:51.246Z,2.90
2023-02-06T03:34:52.311Z,2.80
2023-02-06T03:38:14.477Z,2.70
2023-02-06T03:41:38.896Z,2.70
2023-02-06T03:45:09.979Z,2.70
2023-02-06T03:48:36.020Z,2.70
2023-02-06T03:52:06.022Z,2.70
2023-02-06T03:55:28.271Z,2.60
2023-02-06T03:58:50.451Z,2.60
2023-02-06T04:02:14.204Z,2.60
2023-02-06T04:05:37.520Z,2.60
2023-02-06T04:08:59.582Z,2.60
2023-02-06T04:12:22.679Z,2.60
2023-02-06T04:15:44.750Z,2.60
2023-02-06T04:19:06.695Z,2.60
2023-02-06T04:22:28.691Z,2.70
2023-02-06T04:25:50.604Z,2.80
2023-02-06T04:29:12.875Z,2.80
2023-02-06T04:32:34.820Z,2.70
2023-02-06T04:35:56.760Z,2.70
2023-02-06T04:39:18.794Z,2.70
2023-02-06T04:42:40.899Z,2.70
2023-02-06T04:46:02.869Z,2.70
2023-02-06T04:49:24.906Z,2.70
2023-02-06T04:52:46.863Z,2.60
2023-02-06T04:56:11.024Z,2.50
2023-02-06T04:59:32.928Z,2.50
2023-02-06T05:02:54.920Z,2.50
2023-02-06T05:06:17.707Z,2.50
2023-02-06T05:09:39.619Z,2.50
2023-02-06T05:13:01.619Z,2.50
2023-02-06T05:16:23.994Z,2.40
2023-02-06T05:19:45.903Z,2.40
2023-02-06T05:23:09.126Z,2.40
2023-02-06T05:26:31.078Z,2.40
2023-02-06T05:29:53.062Z,2.40
2023-02-06T05:33:15.191Z,2.50
2023-02-06T05:36:37.150Z,2.50
2023-02-06T05:40:00.035Z,2.50
2023-02-06T05:43:22.213Z,2.50
2023-02-06T05:46:44.263Z,2.50
2023-02-06T05:50:06.540Z,2.50
2023-02-06T05:53:28.506Z,2.50
2023-02-06T05:56:50.497Z,2.50
2023-02-06T06:00:13.016Z,2.50
2023-02-06T06:03:35.166Z,2.50
2023-02-06T06:06:57.144Z,2.50
2023-02-06T06:10:19.142Z,2.50
2023-02-06T06:13:41.097Z,2.50
2023-02-06T06:17:03.136Z,2.50
2023-02-06T06:20:25.343Z,2.60
2023-02-06T06:23:47.411Z,2.60
2023-02-06T06:27:11.807Z,2.60
2023-02-06T06:30:35.619Z,2.70
2023-02-06T06:33:57.749Z,2.70
2023-02-06T06:37:19.681Z,2.80
2023-02-06T06:40:41.894Z,2.80
2023-02-06T06:44:04.169Z,2.90
2023-02-06T06:47:26.120Z,2.90
2023-02-06T06:50:50.276Z,2.90
2023-02-06T06:54:12.213Z,2.90
2023-02-06T06:57:34.187Z,2.90
2023-02-06T07:00:57.022Z,3.00
2023-02-06T07:04:20.994Z,3.00
2023-02-06T07:07:42.941Z,3.10
2023-02-06T07:11:04.993Z,3.10
2023-02-06T07:14:26.933Z,3.20
2023-02-06T07:17:48.952Z,3.20
2023-02-06T07:21:11.609Z,3.20
2023-02-06T07:24:33.562Z,3.20
2023-02-06T07:27:55.508Z,3.20
2023-02-06T07:31:17.600Z,3.30
2023-02-06T07:34:40.635Z,3.30
2023-02-06T07:38:02.575Z,3.40
2023-02-06T07:41:24.602Z,3.40
2023-02-06T07:44:46.591Z,3.50
2023-02-06T07:48:09.181Z,3.50
2023-02-06T07:51:31.162Z,3.60
2023-02-06T07:54:53.140Z,3.60
2023-02-06T07:58:15.133Z,3.70
2023-02-06T08:01:37.289Z,3.70
2023-02-06T08:04:59.309Z,3.80
2023-02-06T08:08:21.363Z,3.80
2023-02-06T08:11:44.130Z,3.80
2023-02-06T08:15:06.375Z,3.90
2023-02-06T08:18:28.296Z,4.00
2023-02-06T08:21:50.251Z,4.10
2023-02-06T08:25:12.285Z,4.10
2023-02-06T08:28:35.421Z,4.10
2023-02-06T08:31:57.455Z,4.00
2023-02-06T08:35:19.427Z,4.00
2023-02-06T08:38:41.707Z,4.00
2023-02-06T08:42:04.403Z,4.00
2023-02-06T08:45:26.346Z,4.00
2023-02-06T08:48:48.441Z,4.10
2023-02-06T08:52:10.684Z,4.10
2023-02-06T08:55:32.697Z,4.10
2023-02-06T08:58:55.337Z,4.10
2023-02-06T09:02:17.491Z,4.10
2023-02-06T09:05:39.468Z,4.30
2023-02-06T09:09:01.754Z,4.30
2023-02-06T09:12:23.769Z,4.50
2023-02-06T09:15:52.184Z,4.60
2023-02-06T09:19:14.290Z,4.40
2023-02-06T09:22:36.228Z,4.40
2023-02-06T09:25:58.210Z,4.30
2023-02-06T09:29:20.161Z,4.40
2023-02-06T09:32:43.336Z,4.50
2023-02-06T09:36:14.091Z,4.60
2023-02-06T09:39:36.292Z,4.70
2023-02-06T09:42:58.434Z,4.90
2023-02-06T09:46:26.964Z,5.00
2023-02-06T09:49:53.886Z,5.00
2023-02-06T09:53:21.358Z,5.10
2023-02-06T09:56:56.595Z,5.20
2023-02-06T10:00:44.685Z,5.30
2023-02-06T10:04:25.367Z,5.20
2023-02-06T10:08:11.265Z,5.30
2023-02-06T10:11:46.033Z,5.10
2023-02-06T10:15:25.319Z,5.10
2023-02-06T10:18:53.943Z,5.30
2023-02-06T10:22:38.976Z,5.40
2023-02-06T10:26:23.462Z,5.60
2023-02-06T10:29:47.908Z,5.30
2023-02-06T10:33:25.262Z,5.00
2023-02-06T10:36:59.946Z,5.20
2023-02-06T10:40:49.719Z,5.30
2023-02-06T10:44:17.554Z,5.40
2023-02-06T10:48:18.322Z,5.30
2023-02-06T10:51:43.297Z,5.10
2023-02-06T10:55:30.178Z,5.10
2023-02-06T10:59:02.716Z,5.10
2023-02-06T11:02:32.041Z,4.90
2023-02-06T11:05:54.512Z,5.00
2023-02-06T11:09:16.560Z,5.10
2023-02-06T11:12:43.260Z,5.20
2023-02-06T11:16:13.653Z,5.40
2023-02-06T11:19:40.470Z,5.40
2023-02-06T11:23:16.792Z,5.60
2023-02-06T11:26:45.645Z,5.50
2023-02-06T11:30:21.405Z,5.00
2023-02-06T11:33:46.871Z,5.00
2023-02-06T11:37:32.213Z,4.90
2023-02-06T11:41:00.621Z,4.90
2023-02-06T11:44:25.541Z,4.80
2023-02-06T11:47:47.550Z,4.80
2023-02-06T11:51:10.182Z,4.80
2023-02-06T11:54:36.025Z,4.90
2023-02-06T11:58:16.900Z,5.00
2023-02-06T12:01:44.377Z,4.90
2023-02-06T12:05:15.246Z,4.80
2023-02-06T12:08:51.155Z,4.80
2023-02-06T12:12:27.217Z,4.90
2023-02-06T12:15:54.360Z,5.10
2023-02-06T12:19:24.738Z,5.10
2023-02-06T12:22:58.935Z,5.10
2023-02-06T12:26:24.255Z,5.30
2023-02-06T12:30:11.546Z,5.50
2023-02-06T12:33:55.638Z,5.60
2023-02-06T12:37:21.583Z,5.70
2023-02-06T12:41:08.599Z,5.60
2023-02-06T12:44:40.593Z,5.60
2023-02-06T12:48:35.284Z,5.40
2023-02-06T12:52:14.623Z,5.30
2023-02-06T12:55:54.782Z,5.70
2023-02-06T12:59:34.959Z,6.00
2023-02-06T13:03:27.780Z,5.70
2023-02-06T13:06:49.688Z,5.60
2023-02-06T13:10:20.799Z,5.70
2023-02-06T13:13:43.372Z,5.50
2023-02-06T13:17:10.417Z,5.40
2023-02-06T13:20:33.448Z,5.30
2023-02-06T13:24:04.249Z,5.50
2023-02-06T13:27:39.844Z,5.60
2023-02-06T13:32:32.089Z,5.20
2023-02-06T13:35:55.682Z,5.00
2023-02-06T13:39:27.698Z,5.20
2023-02-06T13:42:49.892Z,5.30
2023-02-06T13:46:18.147Z,5.20
2023-02-06T13:49:53.159Z,5.10
2023-02-06T13:53:25.104Z,5.10
2023-02-06T13:57:08.467Z,5.00
2023-02-06T14:00:40.834Z,5.00
2023-02-06T14:04:08.346Z,5.00
2023-02-06T14:07:36.305Z,4.90
2023-02-06T14:11:04.115Z,4.90
2023-02-06T14:14:35.545Z,4.90
2023-02-06T14:18:23.398Z,4.80
2023-02-06T14:22:10.205Z,4.80
2023-02-06T14:25:40.847Z,4.70
2023-02-06T14:29:21.485Z,4.60
2023-02-06T14:32:58.922Z,4.70
2023-02-06T14:36:47.277Z,4.70
2023-02-06T14:40:31.303Z,4.70
2023-02-06T14:43:53.469Z,4.60
2023-02-06T14:47:25.967Z,4.50
2023-02-06T14:50:56.582Z,4.50
2023-02-06T14:54:30.423Z,4.50
2023-02-06T14:57:52.403Z,4.50
2023-02-06T15:01:24.756Z,4.40
2023-02-06T15:04:47.534Z,4.40
2023-02-06T15:08:18.246Z,4.40
2023-02-06T15:11:40.219Z,4.30
2023-02-06T15:15:14.582Z,4.20
2023-02-06T15:18:37.026Z,4.20
2023-02-06T15:22:12.931Z,4.20
2023-02-06T15:25:58.784Z,4.20
2023-02-06T15:29:23.818Z,4.10
2023-02-06T15:32:49.704Z,4.10
2023-02-06T15:36:24.948Z,4.10
2023-02-06T15:39:47.766Z,4.00
2023-02-06T15:43:20.362Z,4.00
2023-02-06T15:46:44.033Z,4.00
2023-02-06T15:50:11.644Z,4.00
2023-02-06T15:53:35.035Z,4.00
2023-02-06T15:57:27.078Z,3.90
2023-02-06T16:00:58.789Z,3.90
2023-02-06T16:04:42.769Z,3.90
2023-02-06T16:08:10.929Z,3.90
2023-02-06T16:11:47.680Z,3.90
2023-02-06T16:15:21.829Z,3.90
2023-02-06T16:18:43.908Z,3.80
2023-02-06T16:22:15.173Z,3.80
2023-02-06T16:25:38.093Z,3.80
2023-02-06T16:29:25.918Z,3.80
2023-02-06T16:32:47.914Z,3.70
2023-02-06T16:36:14.576Z,3.70
2023-02-06T16:39:41.469Z,3.70
2023-02-06T16:43:10.637Z,3.60
2023-02-06T16:46:36.563Z,3.60
2023-02-06T16:49:59.921Z,3.60
2023-02-06T16:53:24.483Z,3.60
2023-02-06T16:56:47.090Z,3.50
2023-02-06T17:00:20.335Z,3.50
2023-02-06T17:03:42.565Z,3.40
2023-02-06T17:07:04.791Z,3.40
2023-02-06T17:10:27.268Z,3.50
2023-02-06T17:13:49.317Z,3.40
2023-02-06T17:17:13.828Z,3.40
2023-02-06T17:20:39.404Z,3.40
2023-02-06T17:24:02.174Z,3.30
2023-02-06T17:27:24.161Z,3.30
2023-02-06T17:30:49.085Z,3.30
2023-02-06T17:34:12.383Z,3.20
2023-02-06T17:37:34.784Z,3.30
2023-02-06T17:40:56.938Z,3.30
2023-02-06T17:44:20.051Z,3.20
2023-02-06T17:47:42.369Z,3.20
2023-02-06T17:51:05.677Z,3.10
2023-02-06T17:54:27.686Z,3.00
2023-02-06T17:57:49.688Z,2.90
2023-02-06T18:01:14.324Z,2.90
2023-02-06T18:04:36.705Z,2.70
2023-02-06T18:07:58.713Z,2.60
2023-02-06T18:11:21.882Z,2.50
2023-02-06T18:14:48.061Z,2.40
2023-02-06T18:18:10.084Z,2.30
2023-02-06T18:21:32.114Z,2.30
2023-02-06T18:24:54.225Z,2.20
2023-02-06T18:28:18.078Z,2.00
2023-02-06T18:31:40.795Z,1.90
2023-02-06T18:35:03.010Z,1.70
2023-02-06T18:38:24.972Z,1.50
2023-02-06T18:42:05.603Z,1.40
2023-02-06T18:45:34.331Z,1.20
2023-02-06T18:48:57.036Z,1.10
2023-02-06T18:52:19.242Z,1.00
2023-02-06T18:55:41.314Z,1.00
2023-02-06T18:59:04.091Z,1.10
2023-02-06T19:02:26.418Z,1.00
2023-02-06T19:05:48.416Z,1.00
2023-02-06T19:09:13.494Z,0.90
2023-02-06T19:12:36.104Z,0.80
2023-02-06T19:16:13.105Z,0.70
2023-02-06T19:19:36.539Z,0.70
2023-02-06T19:22:59.602Z,0.70
2023-02-06T19:26:23.019Z,0.70
2023-02-06T19:29:46.172Z,0.70
2023-02-06T19:33:09.428Z,0.70
2023-02-06T19:36:33.140Z,0.80
2023-02-06T19:39:59.312Z,0.80
2023-02-06T19:43:22.377Z,0.80
2023-02-06T19:46:44.777Z,0.80
2023-02-06T19:50:07.267Z,0.80
2023-02-06T19:53:29.771Z,0.80
2023-02-06T19:56:51.960Z,0.70
2023-02-06T20:00:14.276Z,0.70
2023-02-06T20:03:36.841Z,0.80
2023-02-06T20:06:59.372Z,0.90
2023-02-06T20:10:22.127Z,1.00
2023-02-06T20:13:46.087Z,1.10
2023-02-06T20:17:08.434Z,1.30
2023-02-06T20:20:34.016Z,1.40
2023-02-06T20:23:58.184Z,1.50
2023-02-06T20:27:20.196Z,1.60
2023-02-06T20:30:42.252Z,1.60
2023-02-06T20:34:04.334Z,1.70
2023-02-06T20:37:26.502Z,1.70
2023-02-06T20:40:51.737Z,1.70
2023-02-06T20:44:14.297Z,1.70
2023-02-06T20:47:36.240Z,1.70
2023-02-06T20:50:59.794Z,1.70
2023-02-06T20:54:22.589Z,1.80
2023-02-06T20:57:44.897Z,1.80
2023-02-06T21:01:19.186Z,1.80
2023-02-06T21:04:41.298Z,1.90
2023-02-06T21:08:04.567Z,1.90
2023-02-06T21:11:29.598Z,1.90
2023-02-06T21:14:51.608Z,1.90
2023-02-06T21:18:13.648Z,1.90
2023-02-06T21:21:37.294Z,2.00
2023-02-06T21:24:59.954Z,2.00
2023-02-06T21:28:22.641Z,1.90
2023-02-06T21:31:46.257Z,1.90
2023-02-06T21:35:10.419Z,1.90
2023-02-06T21:38:32.647Z,1.90
2023-02-06T21:41:54.804Z,1.80
2023-02-06T21:45:16.946Z,1.80
2023-02-06T21:48:40.194Z,1.80
2023-02-06T21:52:02.179Z,1.80
2023-02-06T21:55:25.338Z,1.80
2023-02-06T21:58:48.345Z,1.80
2023-02-06T22:02:11.623Z,1.80
2023-02-06T22:05:33.564Z,1.80
2023-02-06T22:08:57.096Z,1.80
2023-02-06T22:12:19.027Z,1.80
2023-02-06T22:15:47.780Z,1.70
2023-02-06T22:19:10.791Z,1.70
2023-02-06T22:22:33.376Z,1.60
2023-02-06T22:25:55.829Z,1.50
2023-02-06T22:29:18.919Z,1.40
2023-02-06T22:32:41.668Z,1.40
2023-02-06T22:36:09.748Z,1.20
2023-02-06T22:39:32.390Z,1.10
2023-02-06T22:42:54.649Z,1.00
2023-02-06T22:46:24.091Z,0.90
2023-02-06T22:49:47.190Z,0.90
2023-02-06T22:53:30.035Z,0.80
2023-02-06T22:56:52.089Z,0.60
2023-02-06T23:00:16.848Z,0.40
2023-02-06T23:03:39.238Z,0.40
2023-02-06T23:07:02.326Z,0.30
2023-02-06T23:10:25.251Z,0.30
2023-02-06T23:13:52.652Z,0.30
2023-02-06T23:17:18.532Z,0.20
2023-02-06T23:20:41.465Z,0.20
2023-02-06T23:24:05.262Z,0.10
2023-02-06T23:27:30.863Z,-0.10
2023-02-06T23:30:54.609Z,-0.20
2023-02-06T23:34:17.812Z,-0.30
2023-02-06T23:37:40.203Z,-0.30
2023-02-06T23:41:10.070Z,-0.40
2023-02-06T23:44:35.080Z,-0.50
2023-02-06T23:47:57.181Z,-0.70
2023-02-06T23:51:26.746Z,-0.70
2023-02-06T23:54:49.679Z,-0.70
2023-02-06T23:58:12.339Z,-0.80
